createdAt,value
2017-11-20T00:00:55.955Z,4.90
2017-11-20T00:03:22.607Z,4.57
2017-11-20T00:05:49.309Z,5.43
2017-11-20T00:08:16.801Z,5.70
2017-11-20T00:10:43.470Z,4.53
2017-11-20T00:13:10.184Z,5.00
2017-11-20T00:15:36.883Z,5.27
2017-11-20T00:18:03.552Z,4.07
2017-11-20T00:20:30.243Z,4.73
2017-11-20T00:22:56.907Z,5.10
2017-11-20T00:25:23.594Z,4.90
2017-11-20T00:27:50.310Z,5.10
2017-11-20T00:30:16.999Z,5.30
2017-11-20T00:32:43.667Z,5.17
2017-11-20T00:35:10.368Z,5.50
2017-11-20T00:37:37.036Z,5.33
2017-11-20T00:40:04.301Z,4.93
2017-11-20T00:42:31.051Z,5.00
2017-11-20T00:44:57.765Z,5.47
2017-11-20T00:47:24.505Z,5.00
2017-11-20T00:49:51.202Z,4.93
2017-11-20T00:52:17.883Z,5.30
2017-11-20T00:54:44.589Z,5.23
2017-11-20T00:57:11.277Z,5.33
2017-11-20T00:59:37.952Z,5.60
2017-11-20T01:02:04.814Z,5.50
2017-11-20T01:04:31.486Z,5.60
2017-11-20T01:06:58.267Z,5.17
2017-11-20T01:09:25.042Z,5.57
2017-11-20T01:11:51.748Z,6.00
2017-11-20T01:14:18.435Z,5.80
2017-11-20T01:16:45.254Z,5.47
2017-11-20T01:19:11.944Z,5.40
2017-11-20T01:21:38.709Z,5.87
2017-11-20T01:24:05.394Z,5.67
2017-11-20T01:26:32.650Z,4.83
2017-11-20T01:28:59.329Z,5.57
2017-11-20T01:31:26.222Z,5.43
2017-11-20T01:33:52.888Z,5.87
2017-11-20T01:36:19.565Z,5.67
2017-11-20T01:38:46.222Z,5.87
2017-11-20T01:41:12.918Z,5.57
2017-11-20T01:43:39.603Z,5.47
2017-11-20T01:46:06.278Z,6.37
2017-11-20T01:48:32.942Z,5.63
2017-11-20T01:50:59.636Z,6.30
2017-11-20T01:53:26.296Z,7.60
2017-11-20T01:55:53.174Z,6.57
2017-11-20T01:58:19.842Z,6.27
2017-11-20T02:00:46.646Z,6.50
2017-11-20T02:03:13.399Z,6.53
2017-11-20T02:05:40.073Z,6.87
2017-11-20T02:08:06.978Z,6.40
2017-11-20T02:10:33.649Z,7.60
2017-11-20T02:13:00.375Z,7.07
2017-11-20T02:15:27.052Z,7.20
2017-11-20T02:17:53.747Z,6.90
2017-11-20T02:20:20.897Z,7.40
2017-11-20T02:22:47.604Z,7.27
2017-11-20T02:25:14.350Z,7.77
2017-11-20T02:27:41.152Z,7.07
2017-11-20T02:30:07.871Z,7.40
2017-11-20T02:32:34.527Z,7.57
2017-11-20T02:35:01.240Z,7.23
2017-11-20T02:37:27.911Z,7.20
2017-11-20T02:39:54.591Z,6.97
2017-11-20T02:42:21.283Z,7.33
2017-11-20T02:44:47.970Z,7.80
2017-11-20T02:47:14.686Z,7.20
2017-11-20T02:49:41.355Z,7.87
2017-11-20T02:52:08.030Z,7.50
2017-11-20T02:54:34.903Z,8.07
2017-11-20T02:57:01.732Z,6.90
2017-11-20T02:59:28.422Z,6.93
2017-11-20T03:01:55.068Z,7.17
2017-11-20T03:04:21.778Z,6.93
2017-11-20T03:06:48.445Z,7.77
2017-11-20T03:09:15.186Z,6.90
2017-11-20T03:11:41.859Z,8.37
2017-11-20T03:14:08.522Z,8.33
2017-11-20T03:16:35.219Z,7.20
2017-11-20T03:19:01.895Z,7.80
2017-11-20T03:21:28.599Z,8.83
2017-11-20T03:23:55.288Z,7.60
2017-11-20T03:26:21.978Z,8.40
2017-11-20T03:28:48.847Z,7.77
2017-11-20T03:31:15.514Z,8.40
2017-11-20T03:33:42.413Z,7.30
2017-11-20T03:36:09.092Z,8.10
2017-11-20T03:38:35.781Z,8.07
2017-11-20T03:41:02.463Z,8.90
2017-11-20T03:43:29.150Z,7.87
2017-11-20T03:45:55.823Z,8.33
2017-11-20T03:48:22.492Z,8.23
2017-11-20T03:50:49.271Z,7.90
2017-11-20T03:53:15.945Z,8.00
2017-11-20T03:55:42.637Z,8.90
2017-11-20T03:58:09.307Z,8.27
2017-11-20T04:00:36.012Z,7.77
2017-11-20T04:03:02.782Z,8.40
2017-11-20T04:05:29.454Z,7.70
2017-11-20T04:07:56.158Z,8.17
2017-11-20T04:10:22.841Z,7.83
2017-11-20T04:12:49.543Z,8.47
2017-11-20T04:15:16.222Z,8.30
2017-11-20T04:17:42.975Z,8.93
2017-11-20T04:20:09.690Z,9.27
2017-11-20T04:22:36.455Z,8.80
2017-11-20T04:25:03.140Z,8.27
2017-11-20T04:27:29.814Z,8.87
2017-11-20T04:29:56.501Z,8.30
2017-11-20T04:32:23.290Z,8.80
2017-11-20T04:34:50.004Z,8.77
2017-11-20T04:37:16.726Z,8.60
2017-11-20T04:39:43.527Z,8.80
2017-11-20T04:42:10.242Z,9.57
2017-11-20T04:44:36.954Z,8.87
2017-11-20T04:47:03.633Z,9.90
2017-11-20T04:49:30.318Z,8.80
2017-11-20T04:51:57.080Z,9.47
2017-11-20T04:54:23.743Z,9.70
2017-11-20T04:56:50.467Z,10.10
2017-11-20T04:59:17.285Z,10.90
2017-11-20T05:01:43.976Z,10.47
2017-11-20T05:04:10.669Z,9.73
2017-11-20T05:06:37.355Z,9.83
2017-11-20T05:09:04.582Z,10.10
2017-11-20T05:11:31.537Z,10.33
2017-11-20T05:13:58.237Z,11.03
2017-11-20T05:16:25.680Z,10.63
2017-11-20T05:18:52.527Z,10.90
2017-11-20T05:21:19.336Z,10.77
2017-11-20T05:23:46.009Z,10.40
2017-11-20T05:26:12.707Z,10.00
2017-11-20T05:28:39.376Z,11.63
2017-11-20T05:31:06.087Z,12.13
2017-11-20T05:33:32.763Z,11.20
2017-11-20T05:35:59.439Z,11.97
2017-11-20T05:38:26.137Z,12.20
2017-11-20T05:40:52.800Z,12.10
2017-11-20T05:43:19.506Z,12.27
2017-11-20T05:45:46.180Z,12.10
2017-11-20T05:48:16.575Z,12.57
2017-11-20T05:50:43.247Z,12.57
2017-11-20T05:53:09.925Z,11.67
2017-11-20T05:55:36.781Z,11.60
2017-11-20T05:58:07.468Z,13.17
2017-11-20T06:00:34.169Z,13.40
2017-11-20T06:03:00.928Z,12.17
2017-11-20T06:05:27.631Z,12.17
2017-11-20T06:07:54.312Z,12.40
2017-11-20T06:10:21.124Z,12.00
2017-11-20T06:12:47.830Z,12.40
2017-11-20T06:15:14.539Z,13.10
2017-11-20T06:17:41.313Z,12.77
2017-11-20T06:20:07.981Z,12.90
2017-11-20T06:22:34.862Z,12.57
2017-11-20T06:25:01.584Z,12.77
2017-11-20T06:27:28.305Z,12.30
2017-11-20T06:29:55.033Z,12.60
2017-11-20T06:32:21.733Z,12.47
2017-11-20T06:34:48.424Z,13.00
2017-11-20T06:37:15.133Z,13.37
2017-11-20T06:39:41.850Z,14.03
2017-11-20T06:42:08.539Z,15.10
2017-11-20T06:44:35.395Z,13.47
2017-11-20T06:47:02.113Z,15.97
2017-11-20T06:49:28.834Z,13.50
2017-11-20T06:51:55.554Z,14.90
2017-11-20T06:54:22.265Z,14.50
2017-11-20T06:56:48.935Z,14.10
2017-11-20T06:59:15.646Z,15.77
2017-11-20T07:01:42.442Z,14.40
2017-11-20T07:04:09.284Z,13.70
2017-11-20T07:06:35.967Z,15.30
2017-11-20T07:09:02.674Z,15.03
2017-11-20T07:11:29.373Z,12.30
2017-11-20T07:13:56.128Z,13.87
2017-11-20T07:16:22.882Z,12.93
2017-11-20T07:18:49.570Z,13.90
2017-11-20T07:21:16.280Z,13.53
2017-11-20T07:23:42.971Z,14.47
2017-11-20T07:26:15.621Z,14.40
2017-11-20T07:28:48.076Z,14.67
2017-11-20T07:31:20.583Z,14.40
2017-11-20T07:33:53.068Z,15.97
2017-11-20T07:36:25.623Z,14.00
2017-11-20T07:39:09.571Z,13.90
2017-11-20T07:41:42.001Z,14.87
2017-11-20T07:44:08.842Z,15.00
2017-11-20T07:46:35.576Z,14.53
2017-11-20T07:49:03.024Z,14.37
2017-11-20T07:51:29.720Z,15.33
2017-11-20T07:53:56.449Z,14.50
2017-11-20T07:56:23.349Z,14.70
2017-11-20T07:58:50.221Z,14.37
2017-11-20T08:01:17.150Z,14.60
2017-11-20T08:03:45.657Z,13.73
2017-11-20T08:06:12.357Z,14.10
2017-11-20T08:08:39.027Z,15.67
2017-11-20T08:11:05.735Z,14.53
2017-11-20T08:13:32.408Z,13.47
2017-11-20T08:15:59.175Z,14.10
2017-11-20T08:18:25.903Z,12.77
2017-11-20T08:20:53.488Z,12.63
2017-11-20T08:23:20.207Z,12.47
2017-11-20T08:25:46.881Z,12.57
2017-11-20T08:28:13.727Z,13.20
2017-11-20T08:30:40.414Z,13.13
2017-11-20T08:33:07.132Z,13.90
2017-11-20T08:35:33.836Z,14.80
2017-11-20T08:38:00.501Z,12.30
2017-11-20T08:40:27.284Z,12.90
2017-11-20T08:42:53.976Z,12.97
2017-11-20T08:45:20.728Z,12.40
2017-11-20T08:47:47.391Z,13.90
2017-11-20T08:50:14.107Z,11.73
2017-11-20T08:52:40.813Z,13.00
2017-11-20T08:55:10.218Z,12.40
2017-11-20T08:57:36.903Z,12.03
2017-11-20T09:00:03.596Z,12.07
2017-11-20T09:02:30.316Z,11.67
2017-11-20T09:04:57.023Z,12.70
2017-11-20T09:07:23.728Z,12.77
2017-11-20T09:09:50.533Z,12.10
2017-11-20T09:12:17.201Z,13.03
2017-11-20T09:14:43.901Z,12.23
2017-11-20T09:17:10.574Z,11.33
2017-11-20T09:19:37.284Z,11.87
2017-11-20T09:22:03.969Z,10.67
2017-11-20T09:24:30.652Z,11.00
2017-11-20T09:26:57.354Z,10.80
2017-11-20T09:29:24.019Z,12.10
2017-11-20T09:31:50.727Z,11.33
2017-11-20T09:34:17.478Z,11.57
2017-11-20T09:36:44.173Z,11.43
2017-11-20T09:39:10.885Z,11.87
2017-11-20T09:41:37.691Z,13.30
2017-11-20T09:44:04.608Z,11.80
2017-11-20T09:46:31.293Z,11.57
2017-11-20T09:48:59.008Z,10.27
2017-11-20T09:51:25.690Z,11.40
2017-11-20T09:53:52.385Z,12.07
2017-11-20T09:56:19.129Z,11.40
2017-11-20T09:58:46.015Z,11.43
2017-11-20T10:01:13.375Z,12.90
2017-11-20T10:03:40.078Z,12.10
2017-11-20T10:06:06.897Z,12.93
2017-11-20T10:08:33.577Z,11.80
2017-11-20T10:11:00.291Z,11.73
2017-11-20T10:13:26.971Z,11.80
2017-11-20T10:15:53.714Z,12.30
2017-11-20T10:18:20.402Z,11.90
2017-11-20T10:20:47.068Z,10.70
2017-11-20T10:23:13.891Z,11.20
2017-11-20T10:25:40.554Z,11.50
2017-11-20T10:28:07.261Z,11.70
2017-11-20T10:30:33.980Z,11.60
2017-11-20T10:33:00.699Z,11.90
2017-11-20T10:35:27.580Z,11.00
2017-11-20T10:37:54.294Z,12.07
2017-11-20T10:40:21.061Z,11.33
2017-11-20T10:42:47.729Z,12.10
2017-11-20T10:45:14.430Z,11.73
2017-11-20T10:47:41.116Z,11.57
2017-11-20T10:50:08.604Z,12.17
2017-11-20T10:52:35.311Z,9.70
2017-11-20T10:55:02.002Z,10.13
2017-11-20T10:57:28.749Z,10.93
2017-11-20T10:59:55.529Z,11.27
2017-11-20T11:02:22.240Z,10.57
2017-11-20T11:04:48.914Z,10.70
2017-11-20T11:07:15.689Z,10.77
2017-11-20T11:09:42.411Z,9.80
2017-11-20T11:12:09.084Z,9.43
2017-11-20T11:14:35.812Z,9.77
2017-11-20T11:17:02.496Z,8.87
2017-11-20T11:19:31.602Z,9.03
2017-11-20T11:21:58.344Z,9.93
2017-11-20T11:24:25.035Z,8.87
2017-11-20T11:26:51.753Z,9.27
2017-11-20T11:29:18.429Z,9.30
2017-11-20T11:31:45.129Z,9.20
2017-11-20T11:34:11.825Z,8.00
2017-11-20T11:36:38.506Z,8.17
2017-11-20T11:39:05.212Z,8.40
2017-11-20T11:41:31.876Z,8.83
2017-11-20T11:43:58.581Z,8.13
2017-11-20T11:46:25.295Z,9.07
2017-11-20T11:48:52.040Z,8.00
2017-11-20T11:51:18.747Z,7.80
2017-11-20T11:53:45.425Z,8.83
2017-11-20T11:56:12.129Z,7.43
2017-11-20T11:58:38.832Z,7.80
2017-11-20T12:01:05.531Z,7.80
2017-11-20T12:03:32.204Z,6.70
2017-11-20T12:05:58.918Z,6.73
2017-11-20T12:08:27.105Z,7.27
2017-11-20T12:10:53.787Z,8.23
2017-11-20T12:13:20.460Z,6.60
2017-11-20T12:15:47.148Z,7.30
2017-11-20T12:18:14.002Z,7.63
2017-11-20T12:20:42.380Z,8.50
2017-11-20T12:23:09.056Z,7.13
2017-11-20T12:25:42.451Z,7.80
2017-11-20T12:28:09.142Z,7.20
2017-11-20T12:30:35.819Z,8.37
2017-11-20T12:33:03.278Z,6.87
2017-11-20T12:35:29.964Z,8.57
2017-11-20T12:37:56.654Z,7.60
2017-11-20T12:40:23.348Z,7.00
2017-11-20T12:42:50.095Z,7.20
2017-11-20T12:45:19.316Z,8.13
2017-11-20T12:47:46.158Z,7.87
2017-11-20T12:50:12.876Z,7.77
2017-11-20T12:52:39.545Z,8.00
2017-11-20T12:55:06.246Z,8.17
2017-11-20T12:57:32.920Z,8.67
2017-11-20T12:59:59.634Z,8.73
2017-11-20T13:02:26.298Z,8.50
2017-11-20T13:04:52.958Z,7.70
2017-11-20T13:07:19.915Z,7.87
2017-11-20T13:09:46.768Z,8.00
2017-11-20T13:12:13.486Z,7.77
2017-11-20T13:14:40.463Z,8.70
2017-11-20T13:17:07.166Z,8.20
2017-11-20T13:19:33.981Z,7.63
2017-11-20T13:22:00.696Z,8.10
2017-11-20T13:24:28.153Z,8.90
2017-11-20T13:26:54.835Z,8.40
2017-11-20T13:29:21.537Z,8.20
2017-11-20T13:31:48.191Z,8.47
2017-11-20T13:34:14.908Z,8.87
2017-11-20T13:36:41.627Z,7.43
2017-11-20T13:39:08.315Z,7.93
2017-11-20T13:41:35.018Z,7.53
2017-11-20T13:44:03.673Z,8.03
2017-11-20T13:46:30.348Z,8.00
2017-11-20T13:48:57.061Z,8.10
2017-11-20T13:51:23.875Z,8.53
2017-11-20T13:53:50.595Z,7.97
2017-11-20T13:56:18.459Z,7.67
2017-11-20T13:58:45.161Z,8.80
2017-11-20T14:01:12.055Z,8.30
2017-11-20T14:03:38.762Z,7.73
2017-11-20T14:06:06.247Z,8.97
2017-11-20T14:08:32.925Z,9.30
2017-11-20T14:11:00.378Z,9.20
2017-11-20T14:13:27.045Z,8.27
2017-11-20T14:15:54.311Z,8.10
2017-11-20T14:18:21.022Z,9.00
2017-11-20T14:20:47.695Z,8.10
2017-11-20T14:23:15.311Z,9.23
2017-11-20T14:25:41.990Z,10.00
2017-11-20T14:28:08.844Z,8.73
2017-11-20T14:30:35.520Z,9.10
2017-11-20T14:33:02.277Z,8.97
2017-11-20T14:35:28.942Z,8.90
2017-11-20T14:37:55.617Z,9.37
2017-11-20T14:40:22.352Z,9.27
2017-11-20T14:42:49.020Z,8.10
2017-11-20T14:45:15.712Z,8.20
2017-11-20T14:47:42.374Z,8.80
2017-11-20T14:50:09.073Z,9.40
2017-11-20T14:52:36.545Z,8.83
2017-11-20T14:55:03.269Z,9.53
2017-11-20T14:57:30.435Z,9.37
2017-11-20T14:59:57.098Z,9.50
2017-11-20T15:02:28.545Z,9.33
2017-11-20T15:04:55.210Z,10.90
2017-11-20T15:07:21.921Z,9.47
2017-11-20T15:09:48.590Z,8.90
2017-11-20T15:12:15.336Z,10.00
2017-11-20T15:14:42.790Z,9.80
2017-11-20T15:17:09.464Z,9.80
2017-11-20T15:19:36.175Z,8.97
2017-11-20T15:22:03.824Z,10.30
2017-11-20T15:24:30.514Z,10.27
2017-11-20T15:26:57.203Z,9.80
2017-11-20T15:29:24.151Z,10.40
2017-11-20T15:31:51.014Z,10.00
2017-11-20T15:34:17.682Z,9.00
2017-11-20T15:36:44.387Z,10.50
2017-11-20T15:39:11.108Z,10.57
2017-11-20T15:41:37.796Z,10.63
2017-11-20T15:44:04.512Z,9.80
2017-11-20T15:46:31.175Z,11.00
2017-11-20T15:48:57.853Z,9.67
2017-11-20T15:51:24.898Z,8.60
2017-11-20T15:53:51.577Z,11.03
2017-11-20T15:56:18.267Z,10.00
2017-11-20T15:58:44.949Z,9.83
2017-11-20T16:01:12.648Z,9.57
2017-11-20T16:03:39.372Z,10.67
2017-11-20T16:06:06.250Z,9.30
2017-11-20T16:08:32.935Z,8.90
2017-11-20T16:10:59.609Z,10.00
2017-11-20T16:13:26.290Z,8.77
2017-11-20T16:15:52.983Z,9.13
2017-11-20T16:18:19.711Z,9.33
2017-11-20T16:20:46.515Z,8.47
2017-11-20T16:23:13.171Z,9.13
2017-11-20T16:25:39.868Z,8.80
2017-11-20T16:28:09.228Z,7.47
2017-11-20T16:30:35.944Z,8.97
2017-11-20T16:33:02.641Z,8.40
2017-11-20T16:35:29.387Z,9.00
2017-11-20T16:37:56.060Z,8.30
2017-11-20T16:40:22.781Z,8.63
2017-11-20T16:42:49.454Z,9.03
2017-11-20T16:45:16.144Z,8.77
2017-11-20T16:47:42.850Z,9.20
2017-11-20T16:50:09.528Z,8.50
2017-11-20T16:52:36.224Z,8.70
2017-11-20T16:55:02.962Z,9.00
2017-11-20T16:57:35.481Z,8.10
2017-11-20T17:00:07.932Z,9.30
2017-11-20T17:02:40.451Z,9.40
2017-11-20T17:05:07.853Z,9.10
2017-11-20T17:07:34.537Z,9.80
2017-11-20T17:10:01.245Z,9.23
2017-11-20T17:12:28.547Z,9.03
2017-11-20T17:14:55.256Z,9.60
2017-11-20T17:17:21.937Z,9.10
2017-11-20T17:19:48.642Z,9.77
2017-11-20T17:22:15.315Z,8.90
2017-11-20T17:24:41.982Z,8.97
2017-11-20T17:27:08.676Z,10.17
2017-11-20T17:29:35.341Z,9.40
2017-11-20T17:32:02.032Z,9.13
2017-11-20T17:34:28.702Z,8.63
2017-11-20T17:36:55.390Z,9.50
2017-11-20T17:39:22.935Z,8.53
2017-11-20T17:41:49.621Z,10.10
2017-11-20T17:44:16.318Z,9.30
2017-11-20T17:46:42.991Z,10.60
2017-11-20T17:49:09.701Z,9.03
2017-11-20T17:51:36.388Z,9.57
2017-11-20T17:54:03.080Z,9.70
2017-11-20T17:56:29.759Z,9.97
2017-11-20T17:58:56.442Z,8.97
2017-11-20T18:01:23.171Z,9.67
2017-11-20T18:03:50.428Z,9.50
2017-11-20T18:06:17.169Z,10.20
2017-11-20T18:08:43.855Z,9.67
2017-11-20T18:11:10.588Z,11.60
2017-11-20T18:13:37.302Z,9.73
2017-11-20T18:16:03.975Z,9.20
2017-11-20T18:18:30.694Z,9.90
2017-11-20T18:20:57.631Z,10.13
2017-11-20T18:23:24.318Z,9.30
2017-11-20T18:25:51.029Z,10.20
2017-11-20T18:28:18.361Z,10.37
2017-11-20T18:30:45.085Z,10.73
2017-11-20T18:33:11.762Z,10.70
2017-11-20T18:35:38.546Z,10.10
2017-11-20T18:38:05.258Z,9.43
2017-11-20T18:40:31.952Z,9.10
2017-11-20T18:42:58.694Z,10.70
2017-11-20T18:45:25.452Z,8.90
2017-11-20T18:47:52.180Z,7.80
2017-11-20T18:50:18.906Z,9.17
2017-11-20T18:52:45.663Z,9.00
2017-11-20T18:55:12.423Z,8.30
2017-11-20T18:57:39.172Z,7.70
2017-11-20T19:00:11.593Z,7.70
2017-11-20T19:02:43.967Z,7.83
2017-11-20T19:05:16.464Z,8.73
2017-11-20T19:07:48.896Z,7.60
2017-11-20T19:10:15.574Z,7.43
2017-11-20T19:12:42.765Z,8.23
2017-11-20T19:15:09.453Z,7.80
2017-11-20T19:17:36.213Z,8.00
2017-11-20T19:20:02.956Z,6.67
2017-11-20T19:22:29.705Z,6.83
2017-11-20T19:24:56.401Z,7.90
2017-11-20T19:27:23.120Z,7.17
2017-11-20T19:29:49.867Z,6.83
2017-11-20T19:32:16.576Z,6.90
2017-11-20T19:34:44.009Z,6.70
2017-11-20T19:37:10.855Z,6.30
2017-11-20T19:39:37.725Z,7.40
2017-11-20T19:42:04.540Z,6.73
2017-11-20T19:44:31.407Z,6.77
2017-11-20T19:46:58.277Z,6.47
2017-11-20T19:49:25.153Z,6.90
2017-11-20T19:51:52.125Z,5.83
2017-11-20T19:54:19.090Z,7.40
2017-11-20T19:56:46.015Z,6.40
2017-11-20T19:59:13.026Z,6.57
2017-11-20T20:01:40.001Z,5.93
2017-11-20T20:04:06.888Z,5.70
2017-11-20T20:06:33.798Z,6.20
2017-11-20T20:09:01.310Z,6.93
2017-11-20T20:11:28.231Z,5.80
2017-11-20T20:13:55.056Z,6.60
2017-11-20T20:16:36.758Z,6.70
2017-11-20T20:19:03.818Z,6.87
2017-11-20T20:21:31.058Z,7.27
2017-11-20T20:23:58.934Z,6.53
2017-11-20T20:26:25.845Z,7.23
2017-11-20T20:28:52.601Z,7.20
2017-11-20T20:31:29.159Z,7.93
2017-11-20T20:36:29.074Z,8.30
2017-11-20T20:38:55.777Z,7.77
2017-11-20T20:41:23.521Z,8.30
2017-11-20T20:43:50.246Z,8.97
2017-11-20T20:46:16.937Z,7.30
2017-11-20T20:48:43.617Z,8.10
2017-11-20T20:51:11.355Z,8.30
2017-11-20T20:53:38.042Z,7.87
2017-11-20T20:56:04.729Z,7.00
2017-11-20T20:58:31.471Z,7.30
2017-11-20T21:00:58.188Z,7.43
2017-11-20T21:03:24.884Z,6.97
2017-11-20T21:05:51.553Z,7.70
2017-11-20T21:08:18.258Z,6.90
2017-11-20T21:10:59.804Z,7.87
2017-11-20T21:13:26.496Z,6.50
2017-11-20T21:15:53.166Z,7.43
2017-11-20T21:18:19.853Z,8.20
2017-11-20T21:20:46.551Z,7.07
2017-11-20T21:23:13.310Z,7.33
2017-11-20T21:25:40.008Z,7.60
2017-11-20T21:28:06.680Z,7.60
2017-11-20T21:30:33.439Z,9.70
2017-11-20T21:33:00.182Z,8.30
2017-11-20T21:35:27.507Z,8.50
2017-11-20T21:37:54.229Z,7.93
2017-11-20T21:40:20.936Z,8.23
2017-11-20T21:42:47.630Z,7.70
2017-11-20T21:45:14.335Z,8.07
2017-11-20T21:47:41.049Z,6.80
2017-11-20T21:50:07.728Z,7.57
2017-11-20T21:52:34.449Z,7.30
2017-11-20T21:55:01.154Z,8.07
2017-11-20T21:57:27.878Z,6.87
2017-11-20T21:59:54.686Z,7.67
2017-11-20T22:02:21.365Z,6.37
2017-11-20T22:04:48.060Z,6.97
2017-11-20T22:07:14.760Z,5.90
2017-11-20T22:09:41.547Z,6.10
2017-11-20T22:12:08.247Z,6.20
2017-11-20T22:14:34.972Z,6.30
2017-11-20T22:17:01.633Z,6.47
2017-11-20T22:19:28.317Z,6.20
2017-11-20T22:21:55.110Z,5.50
2017-11-20T22:24:21.791Z,6.13
2017-11-20T22:26:48.466Z,6.67
2017-11-20T22:29:15.178Z,6.13
2017-11-20T22:31:41.917Z,6.03
2017-11-20T22:34:08.647Z,5.77
2017-11-20T22:36:35.323Z,5.97
2017-11-20T22:39:02.020Z,6.77
2017-11-20T22:41:28.694Z,6.33
2017-11-20T22:43:56.049Z,6.80
2017-11-20T22:46:22.763Z,7.50
2017-11-20T22:48:49.411Z,6.83
2017-11-20T22:51:16.077Z,6.70
2017-11-20T22:53:42.923Z,6.20
2017-11-20T22:56:09.567Z,6.80
2017-11-20T22:58:36.237Z,7.80
2017-11-20T23:01:02.920Z,7.90
2017-11-20T23:03:29.578Z,7.13
2017-11-20T23:05:56.276Z,7.10
2017-11-20T23:08:22.959Z,7.50
2017-11-20T23:10:49.678Z,7.27
2017-11-20T23:13:16.380Z,7.43
2017-11-20T23:15:43.589Z,7.33
2017-11-20T23:18:10.855Z,7.40
2017-11-20T23:20:37.534Z,6.97
2017-11-20T23:23:04.232Z,5.83
2017-11-20T23:25:30.894Z,6.43
2017-11-20T23:27:57.568Z,5.50
2017-11-20T23:30:24.275Z,5.93
2017-11-20T23:32:50.937Z,5.90
2017-11-20T23:35:17.626Z,5.43
2017-11-20T23:37:44.305Z,6.50
2017-11-20T23:40:11.004Z,5.80
2017-11-20T23:42:37.673Z,5.00
2017-11-20T23:45:04.335Z,5.97
2017-11-20T23:47:31.171Z,5.20
2017-11-20T23:49:57.926Z,5.53
2017-11-20T23:52:24.722Z,5.93
2017-11-20T23:54:51.465Z,4.70
2017-11-20T23:57:18.129Z,5.60
2017-11-20T23:59:44.846Z,5.37
